Terminal Aerodrome Forecast
Issued by NWS

Home | Current Version | Previous Version | Text Only | Print | Product List | Glossary On
Versions: 1 2 3 4 5 6 7 8 9 10 11 12 13 14
934
FTUS45 KTFX 060755 AAA
TAFBZN
TAF AMD
KBZN 060755Z 0608/0706 20007KT P6SM SCT090
     FM061200 33010KT P6SM VCSH SCT020 BKN035
      TEMPO 0614/0618 5SM -SHRA BR OVC020
     FM061800 06008KT P6SM -SHRA OVC025
     FM070000 12008KT P6SM BKN040 BKN120=

USA.gov is the U.S. government's official web portal to all federal, state and local government web resources and services.